Susan Morrison — WDC7426 — position and weather

sailwx.info

Track history (hours):
 
Tides and Currents Weather Stations Pressure Air Temp Water Temp Dewpoint Dewpoint Depression Visibility Wind Speed Wind Dir Waves Ship Positions

Susan Morrison

Owner: Chet Morrison Contractors Inc., Houma, LA. More information available from US FCC via Universal Licensing System and Coast Guard Vessel Documentation Center.

Last reported at 2017-Dec-11 10:59 UTC. Time now 2017-Dec-11 11:20 UTC.
Position N 29°47' W 092°10'.

Length 15 m; draft 3.1 m.

Type: Towing. MMSI: 367071230.

Date/timePositionNaut miles runAvg speedWind from/ knotsBaromVisibWave heightAir tempDewpointWater temp
2017-Dec-11 10:59N 29°47' W 092°10'0 0.0
2017-Dec-11 10:29N 29°47' W 092°10'0 0.0
2017-Dec-11 09:59N 29°47' W 092°10'0 0.0
2017-Dec-11 09:29N 29°47' W 092°10'0 0.0
2017-Dec-11 08:59N 29°47' W 092°10'0 0.0
2017-Dec-11 08:29N 29°47' W 092°10'0 0.0
2017-Dec-11 07:59N 29°47' W 092°10'0 0.0
2017-Dec-11 07:29N 29°47' W 092°10'0 0.0
2017-Dec-11 06:59N 29°47' W 092°10'0 0.0
2017-Dec-11 06:29N 29°47' W 092°10'0 0.0
2017-Dec-11 05:59N 29°47' W 092°10'0 0.0
2017-Dec-11 05:29N 29°47' W 092°10'0 0.0
2017-Dec-11 04:59N 29°47' W 092°10'0 0.0
2017-Dec-11 04:23N 29°47' W 092°10'0 0.0
2017-Dec-11 03:59N 29°47' W 092°10'0 0.0
2017-Dec-11 03:29N 29°47' W 092°10'0 0.0
2017-Dec-11 02:59N 29°47' W 092°10'0 0.0
2017-Dec-11 02:29N 29°47' W 092°10'0 0.0
2017-Dec-11 01:59N 29°47' W 092°10'0 0.0
2017-Dec-11 01:29N 29°47' W 092°10'0 0.0
2017-Dec-11 00:59N 29°47' W 092°10'0 0.0
2017-Dec-11 00:26N 29°47' W 092°10'1 1.7
2017-Dec-11 00:00N 29°47' W 092°09'3 6.1
2017-Dec-10 23:30N 29°48' W 092°05'3 5.8
2017-Dec-10 23:00N 29°49' W 092°02'6 0.2
2017-Dec-09 16:46N 29°51' W 091°56'2 6.3
2017-Dec-09 16:30N 29°50' W 091°58'3 6.4
2017-Dec-09 16:01N 29°49' W 092°01'0 0.7
2017-Dec-09 15:30N 29°49' W 092°02'6 6.3
2017-Dec-09 14:32N 29°51' W 091°55'0 6.0
2017-Dec-09 14:30N 29°51' W 091°55'51 2.6
2017-Dec-08 18:29N 29°36' W 090°58'4 7.0
2017-Dec-08 17:56N 29°33' W 090°55'3 6.9
2017-Dec-08 17:27N 29°32' W 090°51'3 6.8
2017-Dec-08 17:00N 29°32' W 090°48'3 5.8
2017-Dec-08 16:30N 29°34' W 090°45'1 2.9
2017-Dec-08 16:01N 29°34' W 090°43'1 1.2
2017-Dec-08 15:30N 29°34' W 090°43'0 0.7
2017-Dec-08 15:00N 29°34' W 090°43'0 0.1
2017-Dec-08 14:30N 29°34' W 090°43'0 0.0
2017-Dec-08 14:00N 29°34' W 090°43'  
Track history (hours):
 
Tides and Currents Weather Stations Pressure Air Temp Water Temp Dewpoint Dewpoint Depression Visibility Wind Speed Wind Dir Waves Ship Positions

Susan Morrison

Owner: Chet Morrison Contractors Inc., Houma, LA. More information available from US FCC via Universal Licensing System and Coast Guard Vessel Documentation Center.

Last reported at 2017-Dec-11 10:59 UTC. Time now 2017-Dec-11 11:20 UTC.
Position N 29°47' W 092°10'.

Length 15 m; draft 3.1 m.

Type: Towing. MMSI: 367071230.

Date/timePositionNaut miles runAvg speedWind from/ knotsBaromVisibWave heightAir tempDewpointWater temp
2017-Dec-11 10:59N 29°47' W 092°10'0 0.0
2017-Dec-11 10:29N 29°47' W 092°10'0 0.0
2017-Dec-11 09:59N 29°47' W 092°10'0 0.0
2017-Dec-11 09:29N 29°47' W 092°10'0 0.0
2017-Dec-11 08:59N 29°47' W 092°10'0 0.0
2017-Dec-11 08:29N 29°47' W 092°10'0 0.0
2017-Dec-11 07:59N 29°47' W 092°10'0 0.0
2017-Dec-11 07:29N 29°47' W 092°10'0 0.0
2017-Dec-11 06:59N 29°47' W 092°10'0 0.0
2017-Dec-11 06:29N 29°47' W 092°10'0 0.0
2017-Dec-11 05:59N 29°47' W 092°10'0 0.0
2017-Dec-11 05:29N 29°47' W 092°10'0 0.0
2017-Dec-11 04:59N 29°47' W 092°10'0 0.0
2017-Dec-11 04:23N 29°47' W 092°10'0 0.0
2017-Dec-11 03:59N 29°47' W 092°10'0 0.0
2017-Dec-11 03:29N 29°47' W 092°10'0 0.0
2017-Dec-11 02:59N 29°47' W 092°10'0 0.0
2017-Dec-11 02:29N 29°47' W 092°10'0 0.0
2017-Dec-11 01:59N 29°47' W 092°10'0 0.0
2017-Dec-11 01:29N 29°47' W 092°10'0 0.0
2017-Dec-11 00:59N 29°47' W 092°10'0 0.0
2017-Dec-11 00:26N 29°47' W 092°10'1 1.7
2017-Dec-11 00:00N 29°47' W 092°09'3 6.1
2017-Dec-10 23:30N 29°48' W 092°05'3 5.8
2017-Dec-10 23:00N 29°49' W 092°02'6 0.2
2017-Dec-09 16:46N 29°51' W 091°56'2 6.3
2017-Dec-09 16:30N 29°50' W 091°58'3 6.4
2017-Dec-09 16:01N 29°49' W 092°01'0 0.7
2017-Dec-09 15:30N 29°49' W 092°02'6 6.3
2017-Dec-09 14:32N 29°51' W 091°55'0 6.0
2017-Dec-09 14:30N 29°51' W 091°55'51 2.6
2017-Dec-08 18:29N 29°36' W 090°58'4 7.0
2017-Dec-08 17:56N 29°33' W 090°55'3 6.9
2017-Dec-08 17:27N 29°32' W 090°51'3 6.8
2017-Dec-08 17:00N 29°32' W 090°48'3 5.8
2017-Dec-08 16:30N 29°34' W 090°45'1 2.9
2017-Dec-08 16:01N 29°34' W 090°43'1 1.2
2017-Dec-08 15:30N 29°34' W 090°43'0 0.7
2017-Dec-08 15:00N 29°34' W 090°43'0 0.1
2017-Dec-08 14:30N 29°34' W 090°43'0 0.0
2017-Dec-08 14:00N 29°34' W 090°43'  

Dump ship's entire track history